createdAt,value
2018-03-07T00:01:27.402Z,68.4
2018-03-07T00:11:26.152Z,75.6
2018-03-07T00:21:25.978Z,94.3
2018-03-07T00:31:26.668Z,98.9
2018-03-07T00:41:26.701Z,91.1
2018-03-07T00:51:26.303Z,96.9
2018-03-07T01:01:28.122Z,94.0
2018-03-07T01:11:25.768Z,99.3
2018-03-07T01:21:26.584Z,93.4
2018-03-07T01:31:26.141Z,93.5
2018-03-07T01:41:25.970Z,82.7
2018-03-07T01:51:26.143Z,80.6
2018-03-07T02:01:25.971Z,83.3
2018-03-07T02:11:26.851Z,85.4
2018-03-07T02:21:26.659Z,76.2
2018-03-07T02:31:26.195Z,74.8
2018-03-07T02:41:25.778Z,69.8
2018-03-07T02:51:26.275Z,67.5
2018-03-07T03:01:26.116Z,63.0
2018-03-07T03:11:26.899Z,69.3
2018-03-07T03:21:26.918Z,80.7
2018-03-07T03:31:26.364Z,84.6
2018-03-07T03:41:26.506Z,88.7
2018-03-07T03:51:26.277Z,84.3
2018-03-07T04:01:26.000Z,93.7
2018-03-07T04:11:27.011Z,83.0
2018-03-07T04:21:25.970Z,88.4
2018-03-07T04:31:26.545Z,78.9
2018-03-07T04:41:26.153Z,75.9
2018-03-07T04:51:26.674Z,79.5
2018-03-07T05:01:26.386Z,76.6
2018-03-07T05:11:26.921Z,74.2
2018-03-07T05:21:25.789Z,62.1
2018-03-07T05:31:26.140Z,65.1
2018-03-07T05:41:28.671Z,65.4
2018-03-07T05:51:26.754Z,73.7
2018-03-07T06:01:27.415Z,71.6
2018-03-07T06:11:25.931Z,77.7
2018-03-07T06:21:25.711Z,83.6
2018-03-07T06:31:26.746Z,84.7
2018-03-07T06:41:32.118Z,86.6
2018-03-07T06:51:27.110Z,79.0
2018-03-07T07:01:27.797Z,79.4
2018-03-07T07:11:26.325Z,80.7
2018-03-07T07:21:27.464Z,85.2
2018-03-07T07:31:28.145Z,92.7
2018-03-07T07:41:25.756Z,85.1
2018-03-07T07:51:26.578Z,87.7
2018-03-07T08:01:26.252Z,101.3
2018-03-07T08:11:26.250Z,102.8
2018-03-07T08:21:27.329Z,101.6
2018-03-07T08:31:25.977Z,103.2
2018-03-07T08:41:27.400Z,102.2
2018-03-07T08:51:27.635Z,98.3
2018-03-07T09:01:26.681Z,94.4
2018-03-07T09:11:27.079Z,83.5
2018-03-07T09:21:27.637Z,74.2
2018-03-07T09:31:26.761Z,75.8
2018-03-07T09:41:26.439Z,72.6
2018-03-07T09:51:25.903Z,77.4
2018-03-07T10:01:29.597Z,67.6
2018-03-07T10:11:29.298Z,51.9
2018-03-07T10:21:26.698Z,40.2
2018-03-07T10:31:27.380Z,47.2
2018-03-07T10:41:25.994Z,31.0
2018-03-07T10:51:26.742Z,15.2
2018-03-07T11:01:26.772Z,12.6
2018-03-07T11:11:26.897Z,12.4
2018-03-07T11:21:27.845Z,12.9
2018-03-07T11:31:27.956Z,13.4
2018-03-07T11:41:26.580Z,12.8
2018-03-07T11:51:26.589Z,15.1
2018-03-07T12:01:27.990Z,13.8
2018-03-07T12:11:26.971Z,13.7
2018-03-07T12:21:25.745Z,14.5
2018-03-07T12:31:26.474Z,13.6
2018-03-07T12:41:26.495Z,14.0
2018-03-07T12:51:26.455Z,14.2
2018-03-07T13:01:28.012Z,15.4
2018-03-07T13:11:26.588Z,15.9
2018-03-07T13:21:26.670Z,16.4
2018-03-07T13:31:26.286Z,17.1
2018-03-07T13:41:26.614Z,17.8
2018-03-07T13:51:26.115Z,17.8
2018-03-07T14:01:29.301Z,16.4
2018-03-07T14:11:26.900Z,18.3
2018-03-07T14:21:26.731Z,18.6
2018-03-07T14:31:26.385Z,20.9
2018-03-07T14:41:26.848Z,19.3
2018-03-07T14:51:26.531Z,20.9
2018-03-07T15:01:26.771Z,20.9
2018-03-07T15:11:26.421Z,20.6
2018-03-07T15:21:26.554Z,23.2
2018-03-07T15:31:27.216Z,25.0
2018-03-07T15:41:26.381Z,26.9
2018-03-07T15:51:26.551Z,26.1
2018-03-07T16:01:28.453Z,27.6
2018-03-07T16:11:27.091Z,27.5
2018-03-07T16:21:26.510Z,27.1
2018-03-07T16:31:26.736Z,25.8
2018-03-07T16:41:26.417Z,26.8
2018-03-07T16:51:25.984Z,27.0
2018-03-07T17:01:28.332Z,30.4
2018-03-07T17:11:27.483Z,31.6
2018-03-07T17:21:26.960Z,34.5
2018-03-07T17:31:28.359Z,32.7
2018-03-07T17:41:27.179Z,36.7
2018-03-07T17:51:26.101Z,33.4
2018-03-07T18:01:26.658Z,35.2
2018-03-07T18:11:26.629Z,37.6
2018-03-07T18:21:27.189Z,37.4
2018-03-07T18:31:25.810Z,37.0
2018-03-07T18:41:26.985Z,37.0
2018-03-07T18:51:28.373Z,38.0
2018-03-07T19:01:25.905Z,38.0
2018-03-07T19:11:27.704Z,38.5
2018-03-07T19:21:26.588Z,38.8
2018-03-07T19:31:26.252Z,39.7
2018-03-07T19:41:26.702Z,41.8
2018-03-07T19:51:27.755Z,40.1
2018-03-07T20:01:26.382Z,42.6
2018-03-07T20:11:28.843Z,46.4
2018-03-07T20:21:26.580Z,45.1
2018-03-07T20:31:26.330Z,46.4
2018-03-07T20:41:26.940Z,44.8
2018-03-07T20:51:26.591Z,47.4
2018-03-07T21:01:26.180Z,46.0
2018-03-07T21:11:26.166Z,50.0
2018-03-07T21:21:26.345Z,50.8
2018-03-07T21:31:27.313Z,54.0
2018-03-07T21:41:26.961Z,49.7
2018-03-07T21:51:27.081Z,50.2
2018-03-07T22:01:26.706Z,50.5
2018-03-07T22:11:26.514Z,49.4
2018-03-07T22:21:27.459Z,52.7
2018-03-07T22:31:26.002Z,49.7
2018-03-07T22:41:26.632Z,53.6
2018-03-07T22:51:27.110Z,53.5
2018-03-07T23:01:27.216Z,49.8
2018-03-07T23:11:26.879Z,49.9
2018-03-07T23:21:27.754Z,52.3
2018-03-07T23:31:26.907Z,52.3
2018-03-07T23:41:26.497Z,51.5
2018-03-07T23:51:26.548Z,50.3
